Time;durP1;ratioP1;P1;durP2;ratioP2;P2;SDS_P1;SDS_P2;PMS_P1;PMS_P2;Temp;Humidity;BMP_temperature;BMP_pressure;BME280_temperature;BME280_humidity;BME280_pressure;Samples;Min_cycle;Max_cycle;Signal;HPM_P1;HPM_P2
2021/01/18 00:02:07;;;;;;;;;;;;;;;-15.86;69.45;100684.64;1744551;82;22087;-76
2021/01/18 00:04:35;;;;;;;;;;;;;;;-15.86;69.48;100693.17;1752287;80;20570;-79
2021/01/18 00:07:05;;;;;;;;;;;;;;;-15.83;69.38;100691.33;1748472;80;20347;-78
2021/01/18 00:09:34;;;;;;;;;;;;;;;-15.90;69.36;100689.56;1752027;80;20291;-77
2021/01/18 00:12:01;;;;;;;;;;;;;;;-15.89;69.39;100702.72;1733078;82;20277;-81
2021/01/18 00:14:28;;;;;;;;;;;;;;;-15.89;69.34;100696.33;1742651;82;22076;-80
2021/01/18 00:16:57;;;;;;;;;;;;;;;-15.93;69.30;100698.23;1741900;80;20658;-81
2021/01/18 00:19:25;;;;;;;;;;;;;;;-15.95;69.31;100704.36;1745978;81;20573;-79
2021/01/18 00:21:53;;;;;;;;;;;;;;;-15.92;69.32;100707.58;1746220;80;20282;-81
2021/01/18 00:24:20;;;;;;;;;;;;;;;-15.95;69.23;100715.42;1744378;80;20731;-79
2021/01/18 00:26:49;;;;;;;;;;;;;;;-15.98;69.20;100713.48;1756880;80;21204;-80
2021/01/18 00:29:16;;;;;;;;;;;;;;;-15.98;69.20;100710.92;1755549;80;20271;-80
2021/01/18 00:31:44;;;;;;;;;;;;;;;-15.97;69.20;100714.66;1751230;80;20270;-80
2021/01/18 00:34:12;;;;;;;;;;;;;;;-16.00;69.21;100716.11;1742794;81;20274;-79
2021/01/18 00:36:47;;;;;;;;;;;;;;;-15.98;69.18;100714.30;1749439;81;20279;-80
2021/01/18 00:39:15;;;;;;;;;;;;;;;-16.00;69.17;100712.73;1736654;81;21545;-80
2021/01/18 00:41:43;;;;;;;;;;;;;;;-15.96;69.12;100707.81;1741860;81;20317;-80
2021/01/18 00:44:10;;;;;;;;;;;;;;;-15.92;69.05;100699.08;1743995;80;20268;-79
2021/01/18 00:46:38;;;;;;;;;;;;;;;-15.87;69.00;100700.91;1739969;81;20291;-79
2021/01/18 00:49:06;;;;;;;;;;;;;;;-15.77;68.93;100702.52;1727967;81;20231;-79
2021/01/18 00:51:38;;;;;;;;;;;;;;;-15.67;68.87;100702.38;1751242;81;21783;-79
2021/01/18 00:54:06;;;;;;;;;;;;;;;-15.60;68.79;100699.80;1745433;80;20279;-80
2021/01/18 00:56:36;;;;;;;;;;;;;;;-15.53;68.76;100697.26;1748704;80;20257;-78
2021/01/18 00:59:05;;;;;;;;;;;;;;;-15.48;68.83;100696.56;1729830;81;20246;-80
2021/01/18 01:01:50;;;;;;;;;;;;;;;-15.46;68.72;100697.31;1734804;81;20572;-80
2021/01/18 01:04:19;;;;;;;;;;;;;;;-15.54;68.74;100693.06;1720430;82;22041;-79
2021/01/18 01:06:47;;;;;;;;;;;;;;;-15.58;68.70;100703.57;1741498;81;20227;-80
2021/01/18 01:09:14;;;;;;;;;;;;;;;-15.67;68.57;100694.23;1729848;81;20347;-80
2021/01/18 01:11:46;;;;;;;;;;;;;;;-15.80;68.54;100697.10;1733966;81;20225;-78
2021/01/18 01:14:14;;;;;;;;;;;;;;;-15.95;68.68;100691.57;1744898;81;20296;-80
2021/01/18 01:16:43;;;;;;;;;;;;;;;-15.98;68.68;100693.02;1741358;81;21376;-80
2021/01/18 01:19:11;;;;;;;;;;;;;;;-16.04;68.55;100698.46;1729071;81;20266;-79
2021/01/18 01:21:39;;;;;;;;;;;;;;;-16.09;68.58;100696.13;1747103;81;20289;-81
2021/01/18 01:24:07;;;;;;;;;;;;;;;-16.11;68.69;100698.79;1742290;81;20235;-80
2021/01/18 01:26:35;;;;;;;;;;;;;;;-16.11;68.68;100687.73;1758441;80;20496;-79
2021/01/18 01:29:03;;;;;;;;;;;;;;;-16.06;68.66;100689.58;1745307;81;21808;-80
2021/01/18 01:31:30;;;;;;;;;;;;;;;-16.02;68.62;100693.64;1746504;81;20244;-79
2021/01/18 01:33:58;;;;;;;;;;;;;;;-16.09;68.54;100691.87;1747002;80;20296;-79
2021/01/18 01:36:25;;;;;;;;;;;;;;;-16.10;68.60;100695.31;1777810;79;20355;-79
2021/01/18 01:38:53;;;;;;;;;;;;;;;-16.06;68.59;100693.41;1785129;80;20548;-79
2021/01/18 01:41:21;;;;;;;;;;;;;;;-16.07;68.65;100690.95;1775365;80;20981;-79
2021/01/18 01:43:48;;;;;;;;;;;;;;;-16.06;68.74;100687.47;1779871;80;20282;-79
2021/01/18 01:46:17;;;;;;;;;;;;;;;-16.01;68.74;100692.72;1753924;80;20328;-79
2021/01/18 01:48:44;;;;;;;;;;;;;;;-15.96;68.68;100693.27;1760749;81;20217;-79
2021/01/18 01:51:11;;;;;;;;;;;;;;;-16.00;68.67;100690.52;1780435;80;20222;-79
2021/01/18 01:53:38;;;;;;;;;;;;;;;-15.98;68.67;100684.87;1739042;82;21653;-79
2021/01/18 01:56:06;;;;;;;;;;;;;;;-15.98;68.72;100686.16;1749905;81;20252;-79
2021/01/18 01:58:33;;;;;;;;;;;;;;;-16.00;68.72;100686.69;1750470;81;20313;-79
2021/01/18 02:01:01;;;;;;;;;;;;;;;-16.00;68.68;100687.14;1751255;79;20270;-79
2021/01/18 02:03:45;;;;;;;;;;;;;;;-15.97;68.68;100678.02;1698071;80;20380;-80
2021/01/18 02:06:12;;;;;;;;;;;;;;;-16.00;68.58;100676.45;1760289;80;21380;-77
2021/01/18 02:08:40;;;;;;;;;;;;;;;-16.03;68.55;100683.02;1760685;81;20255;-78
2021/01/18 02:11:07;;;;;;;;;;;;;;;-16.04;68.54;100675.44;1741951;81;20585;-79
2021/01/18 02:13:57;;;;;;;;;;;;;;;-16.06;68.57;100685.73;1743144;81;20232;-79
2021/01/18 02:16:33;;;;;;;;;;;;;;;-16.14;68.54;100683.61;1756374;79;20279;-78
2021/01/18 02:19:23;;;;;;;;;;;;;;;-16.17;68.75;100682.95;1753888;80;21071;-78
2021/01/18 02:22:04;;;;;;;;;;;;;;;-16.13;68.74;100693.38;1753189;81;20230;-80
2021/01/18 02:25:08;;;;;;;;;;;;;;;-16.11;68.68;100689.84;1755114;80;20286;-79
2021/01/18 02:27:56;;;;;;;;;;;;;;;-16.04;68.71;100688.23;1761032;80;20259;-78
2021/01/18 02:30:33;;;;;;;;;;;;;;;-16.01;68.73;100686.33;1752445;81;20208;-79
2021/01/18 02:33:13;;;;;;;;;;;;;;;-16.01;68.68;100679.93;1772847;79;21354;-78
2021/01/18 02:36:01;;;;;;;;;;;;;;;-16.03;68.60;100677.89;1758580;79;20371;-78
2021/01/18 02:38:53;;;;;;;;;;;;;;;-16.05;68.64;100678.45;1763876;81;20295;-79
2021/01/18 02:41:43;;;;;;;;;;;;;;;-16.04;68.73;100686.48;1713015;82;20342;-78
2021/01/18 02:44:13;;;;;;;;;;;;;;;-16.04;68.59;100685.21;1747874;79;20574;-78
2021/01/18 02:46:41;;;;;;;;;;;;;;;-16.04;68.58;100691.61;1764616;79;21374;-78
2021/01/18 02:49:08;;;;;;;;;;;;;;;-16.05;68.53;100692.95;1756135;79;20495;-78
2021/01/18 02:51:39;;;;;;;;;;;;;;;-16.14;68.43;100694.30;1740347;81;20297;-78
2021/01/18 02:54:06;;;;;;;;;;;;;;;-16.17;68.44;100705.97;1754415;80;20288;-79
2021/01/18 02:56:34;;;;;;;;;;;;;;;-16.27;68.44;100707.38;1774005;79;20573;-78
2021/01/18 02:59:03;;;;;;;;;;;;;;;-16.28;68.53;100707.83;1737794;82;21033;-78
2021/01/18 03:01:54;;;;;;;;;;;;;;;-16.28;68.64;100700.16;1727549;81;21295;-78
2021/01/18 03:04:57;;;;;;;;;;;;;;;-16.24;68.68;100702.09;1742924;82;20283;-78
2021/01/18 03:07:38;;;;;;;;;;;;;;;-16.23;68.67;100708.39;1749898;81;20260;-78
2021/01/18 03:10:08;;;;;;;;;;;;;;;-16.32;68.49;100705.03;1762593;80;20222;-78
2021/01/18 03:12:39;;;;;;;;;;;;;;;-16.41;68.31;100702.99;1777166;80;21400;-78
2021/01/18 03:15:10;;;;;;;;;;;;;;;-16.50;68.25;100704.29;1759180;79;20266;-78
2021/01/18 03:17:37;;;;;;;;;;;;;;;-16.49;68.26;100700.81;1750607;81;20281;-78
2021/01/18 03:20:06;;;;;;;;;;;;;;;-16.43;68.26;100709.91;1716633;81;20224;-78
2021/01/18 03:22:34;;;;;;;;;;;;;;;-16.42;68.18;100712.37;1745057;81;20388;-78
2021/01/18 03:25:02;;;;;;;;;;;;;;;-16.43;68.03;100712.00;1736839;81;21256;-78
2021/01/18 03:27:32;;;;;;;;;;;;;;;-16.50;67.82;100704.75;1755687;80;20317;-78
2021/01/18 03:30:02;;;;;;;;;;;;;;;-16.60;67.68;100712.06;1741571;82;20510;-78
2021/01/18 03:32:29;;;;;;;;;;;;;;;-16.69;67.56;100704.87;1753762;80;20308;-78
2021/01/18 03:34:57;;;;;;;;;;;;;;;-16.81;67.51;100705.92;1738980;80;20721;-78
2021/01/18 03:37:24;;;;;;;;;;;;;;;-16.87;67.41;100704.13;1747828;80;21392;-78
2021/01/18 03:39:52;;;;;;;;;;;;;;;-16.94;67.36;100702.77;1744808;81;20215;-78
2021/01/18 03:42:19;;;;;;;;;;;;;;;-16.98;67.30;100705.92;1733994;80;20269;-79
2021/01/18 03:44:46;;;;;;;;;;;;;;;-17.13;67.24;100706.71;1750050;81;20212;-79
2021/01/18 03:47:14;;;;;;;;;;;;;;;-17.24;67.22;100712.78;1745074;80;20299;-79
2021/01/18 03:49:42;;;;;;;;;;;;;;;-17.32;67.28;100718.28;1755827;80;21366;-80
2021/01/18 03:52:09;;;;;;;;;;;;;;;-17.34;67.38;100723.47;1743036;81;20219;-80
2021/01/18 03:54:38;;;;;;;;;;;;;;;-17.33;67.66;100712.34;1749251;82;20611;-80
2021/01/18 03:57:06;;;;;;;;;;;;;;;-17.29;67.94;100712.56;1745215;80;20326;-80
2021/01/18 03:59:33;;;;;;;;;;;;;;;-17.20;68.20;100710.02;1746521;82;20276;-80
2021/01/18 04:02:01;;;;;;;;;;;;;;;-17.10;68.41;100709.94;1748852;82;20844;-79
2021/01/18 04:04:28;;;;;;;;;;;;;;;-17.01;68.57;100714.20;1784883;79;20615;-79
2021/01/18 04:06:56;;;;;;;;;;;;;;;-16.92;68.63;100716.30;1749583;80;20608;-79
2021/01/18 04:09:23;;;;;;;;;;;;;;;-16.88;68.68;100705.83;1747637;81;20610;-80
2021/01/18 04:11:50;;;;;;;;;;;;;;;-16.83;68.68;100709.45;1738799;81;20280;-79
2021/01/18 04:14:18;;;;;;;;;;;;;;;-16.79;68.68;100707.10;1751254;81;21391;-80
2021/01/18 04:16:46;;;;;;;;;;;;;;;-16.78;68.52;100713.85;1767024;79;20231;-77
2021/01/18 04:19:15;;;;;;;;;;;;;;;-16.85;68.36;100715.08;1758704;81;20589;-77
2021/01/18 04:21:43;;;;;;;;;;;;;;;-16.87;68.40;100707.95;1753515;81;20605;-80
2021/01/18 04:24:11;;;;;;;;;;;;;;;-16.83;68.48;100705.16;1734970;80;20219;-80
2021/01/18 04:26:39;;;;;;;;;;;;;;;-16.80;68.47;100709.30;1752534;80;21212;-80
2021/01/18 04:29:06;;;;;;;;;;;;;;;-16.76;68.50;100712.06;1757302;79;20744;-80
2021/01/18 04:31:40;;;;;;;;;;;;;;;-16.73;68.61;100711.87;1747819;81;20590;-80
2021/01/18 04:34:11;;;;;;;;;;;;;;;-16.68;68.64;100709.92;1739779;81;20226;-80
2021/01/18 04:36:39;;;;;;;;;;;;;;;-16.64;68.55;100710.58;1745209;79;20594;-79
2021/01/18 04:39:07;;;;;;;;;;;;;;;-16.65;68.31;100719.13;1741474;81;21253;-80
2021/01/18 04:41:42;;;;;;;;;;;;;;;-16.69;68.16;100719.75;1744570;81;20235;-79
2021/01/18 04:44:13;;;;;;;;;;;;;;;-16.71;67.93;100708.80;1760345;81;20201;-79
2021/01/18 04:46:43;;;;;;;;;;;;;;;-16.74;67.78;100712.78;1755195;81;21062;-79
2021/01/18 04:49:11;;;;;;;;;;;;;;;-16.78;67.71;100713.85;1757337;79;20297;-77
2021/01/18 04:51:47;;;;;;;;;;;;;;;-16.88;67.54;100722.89;1752323;81;21618;-79
2021/01/18 04:54:20;;;;;;;;;;;;;;;-16.97;67.49;100724.66;1776563;79;20648;-78
2021/01/18 04:56:54;;;;;;;;;;;;;;;-17.04;67.54;100721.59;1752060;80;20532;-78
2021/01/18 04:59:22;;;;;;;;;;;;;;;-17.05;67.63;100728.39;1749172;80;20992;-79
2021/01/18 05:01:49;;;;;;;;;;;;;;;-17.02;67.73;100731.25;1752424;80;20978;-79
2021/01/18 05:04:29;;;;;;;;;;;;;;;-17.04;67.81;100728.79;1708722;82;22192;-79
2021/01/18 05:06:59;;;;;;;;;;;;;;;-16.98;68.04;100740.41;1748399;81;20401;-79
2021/01/18 05:09:29;;;;;;;;;;;;;;;-16.92;68.04;100741.38;1742878;80;20632;-79
2021/01/18 05:11:58;;;;;;;;;;;;;;;-16.89;67.99;100745.52;1741469;82;20489;-77
2021/01/18 05:14:26;;;;;;;;;;;;;;;-16.84;68.04;100746.95;1754633;81;20300;-78
2021/01/18 05:16:56;;;;;;;;;;;;;;;-16.87;68.12;100746.28;1755287;81;22411;-78
2021/01/18 05:19:25;;;;;;;;;;;;;;;-16.88;68.17;100752.27;1746513;81;20579;-78
2021/01/18 05:21:52;;;;;;;;;;;;;;;-16.92;68.21;100754.61;1730235;81;20363;-77
2021/01/18 05:24:20;;;;;;;;;;;;;;;-16.95;68.33;100767.08;1751700;81;20529;-79
2021/01/18 05:27:07;;;;;;;;;;;;;;;-16.94;68.42;100754.70;1749182;80;20267;-79
2021/01/18 05:29:37;;;;;;;;;;;;;;;-16.91;68.40;100757.11;1764231;80;21148;-79
2021/01/18 05:32:19;;;;;;;;;;;;;;;-16.86;68.41;100758.97;1752425;81;20220;-78
2021/01/18 05:34:50;;;;;;;;;;;;;;;-16.85;68.43;100764.44;1663332;82;20248;-78
2021/01/18 05:37:17;;;;;;;;;;;;;;;-16.85;68.43;100761.88;1773073;79;20996;-78
2021/01/18 05:39:45;;;;;;;;;;;;;;;-16.88;68.41;100768.87;1770664;80;20235;-78
2021/01/18 05:42:20;;;;;;;;;;;;;;;-16.88;68.42;100767.14;1775423;80;22334;-78
2021/01/18 05:44:47;;;;;;;;;;;;;;;-16.99;68.36;100773.70;1765638;80;20316;-79
2021/01/18 05:47:16;;;;;;;;;;;;;;;-17.10;68.46;100784.00;1741540;80;20262;-78
2021/01/18 05:49:48;;;;;;;;;;;;;;;-17.22;68.55;100782.48;1749562;80;20239;-78
2021/01/18 05:52:29;;;;;;;;;;;;;;;-17.32;68.69;100784.20;1745241;80;20253;-79
2021/01/18 05:55:17;;;;;;;;;;;;;;;-17.39;68.82;100790.50;1783910;79;22395;-79
2021/01/18 05:57:50;;;;;;;;;;;;;;;-17.42;68.98;100797.48;1775679;79;20218;-80
2021/01/18 06:00:35;;;;;;;;;;;;;;;-17.38;69.00;100804.09;1774513;79;20306;-79
2021/01/18 06:03:09;;;;;;;;;;;;;;;-17.46;69.04;100804.45;1782068;80;20266;-78
2021/01/18 06:05:39;;;;;;;;;;;;;;;-17.49;69.18;100810.98;1777479;80;20293;-78
2021/01/18 06:08:17;;;;;;;;;;;;;;;-17.44;69.31;100815.40;1770378;79;21269;-79
2021/01/18 06:10:47;;;;;;;;;;;;;;;-17.36;69.36;100816.34;1772679;80;20362;-80
2021/01/18 06:13:29;;;;;;;;;;;;;;;-17.28;69.42;100812.50;1758439;80;20284;-79
2021/01/18 06:16:05;;;;;;;;;;;;;;;-17.21;69.47;100815.59;1779715;79;20266;-78
2021/01/18 06:18:33;;;;;;;;;;;;;;;-17.18;69.39;100812.89;1773707;79;20258;-79
2021/01/18 06:21:03;;;;;;;;;;;;;;;-17.08;69.33;100810.73;1744983;81;21424;-80
2021/01/18 06:23:31;;;;;;;;;;;;;;;-17.03;69.17;100808.79;1742895;81;20295;-78
2021/01/18 06:25:59;;;;;;;;;;;;;;;-17.01;69.03;100808.25;1766070;81;20597;-78
2021/01/18 06:28:28;;;;;;;;;;;;;;;-17.01;68.99;100810.80;1761428;79;20252;-77
2021/01/18 06:31:00;;;;;;;;;;;;;;;-17.01;69.02;100802.31;1738956;81;20226;-78
2021/01/18 06:33:40;;;;;;;;;;;;;;;-16.98;69.07;100805.55;1763213;80;21145;-78
2021/01/18 06:36:18;;;;;;;;;;;;;;;-16.89;69.13;100803.00;1762885;79;20230;-79
2021/01/18 06:38:58;;;;;;;;;;;;;;;-16.75;69.20;100806.97;1759386;79;20231;-79
2021/01/18 06:41:27;;;;;;;;;;;;;;;-16.60;69.08;100807.91;1760380;81;20228;-79
2021/01/18 06:43:54;;;;;;;;;;;;;;;-16.52;68.90;100813.91;1778825;79;20214;-79
2021/01/18 06:46:31;;;;;;;;;;;;;;;-16.53;68.78;100818.66;1740947;80;21386;-79
2021/01/18 06:48:58;;;;;;;;;;;;;;;-16.54;68.81;100824.68;1756766;79;20510;-79
2021/01/18 06:51:27;;;;;;;;;;;;;;;-16.59;68.89;100826.17;1775051;80;20521;-79
2021/01/18 06:53:56;;;;;;;;;;;;;;;-16.58;68.99;100826.53;1758028;80;20486;-79
2021/01/18 06:56:36;;;;;;;;;;;;;;;-16.50;69.11;100823.61;1761473;80;20308;-79
2021/01/18 06:59:28;;;;;;;;;;;;;;;-16.33;69.17;100817.19;1778762;79;22687;-79
2021/01/18 07:02:08;;;;;;;;;;;;;;;-16.17;69.14;100828.28;1734212;82;20215;-79
2021/01/18 07:04:40;;;;;;;;;;;;;;;-16.01;69.16;100832.16;1750482;80;20307;-80
2021/01/18 07:07:07;;;;;;;;;;;;;;;-15.90;68.98;100834.97;1744992;80;20236;-79
2021/01/18 07:09:35;;;;;;;;;;;;;;;-15.85;68.78;100838.58;1778231;79;20286;-78
2021/01/18 07:12:03;;;;;;;;;;;;;;;-15.85;68.63;100843.23;1719239;82;22562;-79
2021/01/18 07:14:32;;;;;;;;;;;;;;;-15.78;68.61;100839.08;1749071;80;20510;-79
2021/01/18 07:17:05;;;;;;;;;;;;;;;-15.65;68.70;100841.33;1770620;80;20474;-79
2021/01/18 07:19:38;;;;;;;;;;;;;;;-15.47;68.73;100843.34;1748122;81;20507;-80
2021/01/18 07:22:18;;;;;;;;;;;;;;;-15.33;68.70;100833.61;1737178;81;20269;-79
2021/01/18 07:24:48;;;;;;;;;;;;;;;-15.19;68.68;100834.98;1734763;81;22339;-79
2021/01/18 07:27:16;;;;;;;;;;;;;;;-15.03;68.62;100838.34;1743025;80;20573;-77
2021/01/18 07:29:44;;;;;;;;;;;;;;;-14.96;68.44;100834.98;1749470;81;20272;-79
2021/01/18 07:32:11;;;;;;;;;;;;;;;-14.92;68.27;100850.08;1743315;81;20227;-79
2021/01/18 07:34:40;;;;;;;;;;;;;;;-14.99;68.16;100846.68;1762699;79;21055;-78
2021/01/18 07:37:10;;;;;;;;;;;;;;;-14.94;68.29;100841.64;1744964;80;22693;-78
2021/01/18 07:39:39;;;;;;;;;;;;;;;-14.84;68.31;100841.13;1730408;81;20223;-79
2021/01/18 07:42:26;;;;;;;;;;;;;;;-14.68;68.33;100830.37;1758286;80;20210;-78
2021/01/18 07:45:15;;;;;;;;;;;;;;;-14.51;68.19;100829.39;1750323;81;20307;-78
2021/01/18 07:48:04;;;;;;;;;;;;;;;-14.39;68.13;100838.09;1747573;80;20653;-78
2021/01/18 07:50:39;;;;;;;;;;;;;;;-14.21;68.09;100839.58;1751000;82;21012;-80
2021/01/18 07:53:10;;;;;;;;;;;;;;;-14.04;67.95;100849.66;1742851;82;20292;-80
2021/01/18 07:55:40;;;;;;;;;;;;;;;-13.92;67.86;100849.83;1752357;81;20285;-81
2021/01/18 07:58:22;;;;;;;;;;;;;;;-13.81;67.83;100848.27;1758116;79;20942;-79
2021/01/18 08:00:50;;;;;;;;;;;;;;;-13.74;67.65;100847.44;1763436;79;20499;-79
2021/01/18 08:03:21;;;;;;;;;;;;;;;-13.66;67.61;100852.09;1765503;80;22683;-80
2021/01/18 08:05:51;;;;;;;;;;;;;;;-13.60;67.34;100852.55;1756492;79;20279;-80
2021/01/18 08:08:28;;;;;;;;;;;;;;;-13.51;67.39;100857.13;1763285;81;20236;-80
2021/01/18 08:11:18;;;;;;;;;;;;;;;-13.37;67.28;100863.14;1767602;81;20251;-78
2021/01/18 08:13:57;;;;;;;;;;;;;;;-13.29;66.97;100858.34;1768201;80;20230;-79
2021/01/18 08:16:40;;;;;;;;;;;;;;;-13.26;66.76;100862.85;1765453;79;22401;-80
2021/01/18 08:19:26;;;;;;;;;;;;;;;-13.21;66.64;100858.66;1760943;81;20228;-79
2021/01/18 08:21:57;;;;;;;;;;;;;;;-13.09;66.58;100854.51;1765879;81;20298;-79
2021/01/18 08:24:35;;;;;;;;;;;;;;;-13.02;66.30;100855.30;1753901;80;20232;-80
2021/01/18 08:27:13;;;;;;;;;;;;;;;-12.91;66.22;100864.88;1761943;79;20277;-80
2021/01/18 08:29:50;;;;;;;;;;;;;;;-12.87;65.92;100858.61;1759341;79;20245;-79
2021/01/18 08:32:34;;;;;;;;;;;;;;;-12.75;65.74;100848.00;1758895;81;20278;-78
2021/01/18 08:35:08;;;;;;;;;;;;;;;-12.71;65.57;100853.31;1754367;80;20238;-80
2021/01/18 08:37:36;;;;;;;;;;;;;;;-12.65;65.47;100852.91;1748818;81;20273;-79
2021/01/18 08:40:15;;;;;;;;;;;;;;;-12.57;65.25;100854.53;1754019;81;20277;-80
2021/01/18 08:42:44;;;;;;;;;;;;;;;-12.50;65.09;100857.97;1756788;80;22478;-79
2021/01/18 08:45:24;;;;;;;;;;;;;;;-12.46;64.97;100856.39;1754277;80;20224;-80
2021/01/18 08:47:54;;;;;;;;;;;;;;;-12.36;64.82;100845.84;1761553;79;20273;-79
2021/01/18 08:50:32;;;;;;;;;;;;;;;-12.21;64.38;100855.56;1757393;81;20292;-79
2021/01/18 08:53:01;;;;;;;;;;;;;;;-12.18;64.03;100847.64;1733579;81;20240;-79
2021/01/18 08:55:34;;;;;;;;;;;;;;;-12.19;63.50;100851.62;1753108;80;21207;-79
2021/01/18 08:58:04;;;;;;;;;;;;;;;-12.24;63.14;100849.33;1757922;79;20493;-79
2021/01/18 09:00:48;;;;;;;;;;;;;;;-12.23;63.10;100843.75;1762745;79;20282;-79
2021/01/18 09:03:17;;;;;;;;;;;;;;;-12.18;63.14;100838.62;1758113;79;20291;-80
2021/01/18 09:05:45;;;;;;;;;;;;;;;-12.04;63.04;100831.28;1756488;79;20209;-79
2021/01/18 09:08:14;;;;;;;;;;;;;;;-11.91;62.63;100832.52;1755970;79;22295;-79
2021/01/18 09:10:57;;;;;;;;;;;;;;;-11.86;62.42;100830.47;1757751;79;20336;-79
2021/01/18 09:13:26;;;;;;;;;;;;;;;-11.89;61.83;100833.25;1765027;80;20303;-78
2021/01/18 09:15:55;;;;;;;;;;;;;;;-11.91;62.09;100827.37;1762963;80;20264;-78
2021/01/18 09:18:23;;;;;;;;;;;;;;;-11.92;61.98;100829.59;1774644;79;20254;-78
2021/01/18 09:20:53;;;;;;;;;;;;;;;-11.92;61.84;100824.45;1769432;79;20570;-79
2021/01/18 09:23:21;;;;;;;;;;;;;;;-11.93;61.67;100814.61;1764774;80;20267;-78
2021/01/18 09:26:00;;;;;;;;;;;;;;;-11.97;61.46;100814.48;1759357;81;20306;-79
2021/01/18 09:28:28;;;;;;;;;;;;;;;-12.06;61.46;100810.77;1749163;79;20403;-79
2021/01/18 09:30:55;;;;;;;;;;;;;;;-12.12;61.50;100807.32;1771025;79;20308;-78
2021/01/18 09:33:28;;;;;;;;;;;;;;;-12.06;61.59;100813.34;1755304;79;21818;-79
2021/01/18 09:35:55;;;;;;;;;;;;;;;-12.07;61.36;100806.55;1765245;81;20220;-79
2021/01/18 09:38:23;;;;;;;;;;;;;;;-12.13;61.22;100800.53;1743410;81;20580;-79
2021/01/18 09:40:50;;;;;;;;;;;;;;;-12.17;61.34;100800.83;1776189;80;20222;-78
2021/01/18 09:43:19;;;;;;;;;;;;;;;-12.16;61.45;100800.73;1780224;80;20274;-77
2021/01/18 09:45:55;;;;;;;;;;;;;;;-12.11;61.34;100787.54;1762896;80;22351;-79
2021/01/18 09:48:24;;;;;;;;;;;;;;;-12.05;61.28;100795.66;1750397;80;20274;-78
2021/01/18 09:51:07;;;;;;;;;;;;;;;-12.01;61.15;100794.98;1759333;80;20202;-78
2021/01/18 09:53:35;;;;;;;;;;;;;;;-11.97;60.99;100787.91;1771065;80;20579;-78
2021/01/18 09:56:05;;;;;;;;;;;;;;;-11.89;61.06;100789.00;1736869;81;20297;-78
2021/01/18 09:58:42;;;;;;;;;;;;;;;-11.75;60.95;100794.91;1748221;81;21841;-78
2021/01/18 10:01:15;;;;;;;;;;;;;;;-11.65;60.98;100787.70;1751245;80;20765;-77
2021/01/18 10:03:52;;;;;;;;;;;;;;;-11.55;60.68;100790.45;1750752;81;20263;-77
2021/01/18 10:06:27;;;;;;;;;;;;;;;-11.46;60.54;100788.99;1753907;81;20312;-77
2021/01/18 10:09:05;;;;;;;;;;;;;;;-11.40;60.34;100782.94;1748565;81;20248;-78
2021/01/18 10:11:49;;;;;;;;;;;;;;;-11.39;59.92;100785.03;1744858;81;21386;-78
2021/01/18 10:14:23;;;;;;;;;;;;;;;-11.34;59.71;100792.81;1748573;81;20557;-78
2021/01/18 10:17:09;;;;;;;;;;;;;;;-11.24;59.80;100792.16;1749403;80;20290;-78
2021/01/18 10:19:38;;;;;;;;;;;;;;;-11.16;59.57;100798.38;1746839;80;20220;-78
2021/01/18 10:22:14;;;;;;;;;;;;;;;-11.06;59.34;100794.67;1733988;80;20282;-79
2021/01/18 10:24:55;;;;;;;;;;;;;;;-11.01;59.00;100791.78;1744502;81;21804;-79
2021/01/18 10:27:26;;;;;;;;;;;;;;;-11.00;58.91;100793.41;1749089;81;21042;-79
2021/01/18 10:30:19;;;;;;;;;;;;;;;-10.98;58.72;100799.30;1746189;81;20582;-79
2021/01/18 10:32:49;;;;;;;;;;;;;;;-10.95;58.34;100795.20;1748985;81;20276;-78
2021/01/18 10:35:29;;;;;;;;;;;;;;;-10.91;58.52;100793.56;1752679;81;20507;-79
2021/01/18 10:38:20;;;;;;;;;;;;;;;-10.79;58.23;100795.72;1742570;80;22387;-77
2021/01/18 10:41:05;;;;;;;;;;;;;;;-10.74;57.89;100793.61;1739247;80;20269;-77
2021/01/18 10:43:34;;;;;;;;;;;;;;;-10.68;57.88;100785.88;1739684;81;20256;-80
2021/01/18 10:46:02;;;;;;;;;;;;;;;-10.64;57.56;100784.23;1750752;81;20205;-78
2021/01/18 10:48:32;;;;;;;;;;;;;;;-10.66;57.39;100786.13;1746877;80;20275;-79
2021/01/18 10:51:02;;;;;;;;;;;;;;;-10.64;57.21;100786.82;1739166;81;21644;-79
2021/01/18 10:53:30;;;;;;;;;;;;;;;-10.54;56.89;100778.39;1750952;81;20273;-78
2021/01/18 10:56:14;;;;;;;;;;;;;;;-10.49;56.95;100778.88;1751013;81;20260;-79
2021/01/18 10:58:42;;;;;;;;;;;;;;;-10.44;56.62;100778.05;1745843;80;20300;-79
2021/01/18 11:01:13;;;;;;;;;;;;;;;-10.47;56.35;100773.94;1751977;81;20272;-81
2021/01/18 11:03:41;;;;;;;;;;;;;;;-10.51;56.41;100762.20;1745731;81;21383;-80
2021/01/18 11:06:15;;;;;;;;;;;;;;;-10.54;56.47;100764.20;1748547;81;20315;-80
2021/01/18 11:08:43;;;;;;;;;;;;;;;-10.58;56.31;100758.92;1749198;81;20320;-79
2021/01/18 11:11:25;;;;;;;;;;;;;;;-10.74;56.19;100760.53;1736767;81;20229;-79
2021/01/18 11:14:03;;;;;;;;;;;;;;;-10.89;56.27;100768.92;1770102;79;20273;-80
2021/01/18 11:16:32;;;;;;;;;;;;;;;-10.97;56.41;100775.13;1740804;81;21768;-80
2021/01/18 11:19:03;;;;;;;;;;;;;;;-11.05;56.78;100767.97;1778864;79;20520;-78
2021/01/18 11:21:31;;;;;;;;;;;;;;;-11.02;56.89;100775.92;1789506;79;20274;-79
2021/01/18 11:23:58;;;;;;;;;;;;;;;-11.03;57.05;100766.55;1743899;80;20270;-78
2021/01/18 11:26:25;;;;;;;;;;;;;;;-10.93;57.26;100773.49;1749507;81;20274;-77
2021/01/18 11:28:53;;;;;;;;;;;;;;;-10.81;57.21;100779.98;1745424;81;21341;-78
2021/01/18 11:31:20;;;;;;;;;;;;;;;-10.75;57.05;100772.62;1782132;79;20293;-77
2021/01/18 11:33:47;;;;;;;;;;;;;;;-10.66;56.91;100777.09;1752841;80;20238;-77
2021/01/18 11:36:15;;;;;;;;;;;;;;;-10.60;56.88;100777.56;1738591;80;20290;-77
2021/01/18 11:38:42;;;;;;;;;;;;;;;-10.57;56.52;100779.91;1752432;81;20287;-79
2021/01/18 11:41:10;;;;;;;;;;;;;;;-10.68;56.41;100769.92;1762296;80;21433;-79
2021/01/18 11:43:37;;;;;;;;;;;;;;;-10.79;56.51;100768.63;1702571;82;20209;-79
2021/01/18 11:46:05;;;;;;;;;;;;;;;-10.84;56.91;100761.69;1743031;81;20270;-80
2021/01/18 11:48:32;;;;;;;;;;;;;;;-10.81;57.03;100760.64;1747714;80;20362;-80
2021/01/18 11:51:00;;;;;;;;;;;;;;;-10.89;57.06;100768.92;1769166;80;20281;-78
2021/01/18 11:53:27;;;;;;;;;;;;;;;-10.97;57.41;100769.97;1768683;80;21368;-79
2021/01/18 11:55:55;;;;;;;;;;;;;;;-10.97;57.74;100777.71;1781653;80;20277;-79
2021/01/18 11:58:23;;;;;;;;;;;;;;;-10.93;57.93;100773.97;1741444;80;20531;-80
2021/01/18 12:00:51;;;;;;;;;;;;;;;-10.89;57.57;100773.64;1731536;83;20280;-79
2021/01/18 12:03:19;;;;;;;;;;;;;;;-11.02;57.50;100777.21;1771229;80;20267;-79
2021/01/18 12:05:47;;;;;;;;;;;;;;;-11.17;57.73;100773.54;1773070;79;21208;-79
2021/01/18 12:08:15;;;;;;;;;;;;;;;-11.23;58.04;100767.53;1768542;79;20831;-79
2021/01/18 12:10:42;;;;;;;;;;;;;;;-11.34;58.06;100772.19;1757598;79;20279;-79
2021/01/18 12:13:10;;;;;;;;;;;;;;;-11.50;58.46;100770.34;1754830;79;20298;-79
2021/01/18 12:15:37;;;;;;;;;;;;;;;-11.67;58.94;100779.28;1760733;79;20299;-79
2021/01/18 12:18:05;;;;;;;;;;;;;;;-11.73;59.35;100781.47;1755552;80;21402;-77
2021/01/18 12:20:32;;;;;;;;;;;;;;;-11.74;59.62;100779.83;1754773;79;20267;-77
2021/01/18 12:22:59;;;;;;;;;;;;;;;-11.72;59.69;100785.68;1751129;79;20254;-77
2021/01/18 12:25:27;;;;;;;;;;;;;;;-11.72;59.62;100789.54;1760805;80;20770;-80
2021/01/18 12:27:56;;;;;;;;;;;;;;;-11.75;59.69;100780.73;1761163;79;20314;-80
2021/01/18 12:30:24;;;;;;;;;;;;;;;-11.79;60.01;100787.04;1753520;79;21195;-79
2021/01/18 12:32:52;;;;;;;;;;;;;;;-11.83;60.39;100786.44;1761487;80;20288;-79
2021/01/18 12:35:19;;;;;;;;;;;;;;;-11.85;60.73;100791.71;1763038;79;20321;-80
2021/01/18 12:37:47;;;;;;;;;;;;;;;-11.83;61.05;100785.97;1756717;80;20294;-79
2021/01/18 12:40:14;;;;;;;;;;;;;;;-11.89;61.21;100788.17;1743586;81;20250;-77
2021/01/18 12:42:45;;;;;;;;;;;;;;;-11.95;61.16;100793.75;1750027;80;21213;-79
2021/01/18 12:45:14;;;;;;;;;;;;;;;-11.96;61.19;100790.83;1756252;81;21140;-79
2021/01/18 12:47:41;;;;;;;;;;;;;;;-11.93;61.24;100797.05;1754996;81;20268;-79
2021/01/18 12:50:09;;;;;;;;;;;;;;;-11.88;61.31;100797.07;1754792;81;20252;-79
2021/01/18 12:52:41;;;;;;;;;;;;;;;-11.84;61.21;100794.63;1757059;79;20279;-79